Decoded Metar for YWGT (WANGARATTA ARP in _UNIDENTIFIED) (IATA:WGT) | Meteo·Mobile Aviation Weather
aviador You're here:

YWGT Decoded Metar

WANGARATTA ARP in _UNIDENTIFIED
Report Time2019-04-19 22:00:00
UTC Time2019-04-19 22:15:13
Flight Rules vfr VFR
WindCalm
Visibility9999 m
Phenomena:N/A
Clouds:N/A
Expected CloudBase > 2,400 ft AGL from Temp-Dew spread
CeilingNone
Temp12°C (ISA -2)
Dew Point06°C (67% RH)
AAT11.1°C
QNH1025 hPa
Density Alt-13 ft
Elevation502 ft
Report Wrong Elevation
Raw Report
YWGT 192200Z AUTO 00000KT 9999 // NCD 12/06 Q1025=

Extra information for YWGT:More info

Metar Taf Metar & Taf Last 4 Metars F.Rules Stats Wind Profile Meteogram Temp Stats Airport Information Weather charts Add Link Nearby VenuesMetar ALERT Operation Metar Decoded Social comments